Kennebec, South Dakota
Current Conditions -  °F | °C
As of 7:15 AM on Wednesday 22 Oct 2014 (Local Time) from K9V9 Reporting Station
Clear Clear  
Wind Chill: 59°   Ceiling: Unl
Heat Index: 59°   Visibility: 10mi
Dew Point: 52°   Wind: 12mph
Humidity: 77%   Direction: 180°S
Pressure: 29.84"   Gusts: 16mph
Location:  43.9°N, 99.86°W
Report Text: K9V9 221215Z AUTO 18010G14KT 10SM CLR 15/11 A2984 RMK AO2 T01490109
Loading
Personal Weather Stations






























Interactive Weather Map
Tropical Storm Tracking
New forecast layout! Learn more

10-Day Weather Forecast

Advertisements
Track Severe Weather on mobile